Time;durP1;ratioP1;P1;durP2;ratioP2;P2;SDS_P1;SDS_P2;PMS_P1;PMS_P2;Temp;Humidity;BMP_temperature;BMP_pressure;BME280_temperature;BME280_humidity;BME280_pressure;Samples;Min_cycle;Max_cycle;Signal;HPM_P1;HPM_P2
2021/07/14 00:00:38;;;;;;;180.50;85.70;;;19.40;99.90;;;;;;5018024;28;20400;-76
2021/07/14 00:03:03;;;;;;;215.75;94.95;;;19.40;99.90;;;;;;5017232;28;20392;-76
2021/07/14 00:05:32;;;;;;;197.32;90.10;;;19.40;99.90;;;;;;5015335;28;20385;-76
2021/07/14 00:07:57;;;;;;;219.10;96.75;;;19.40;99.90;;;;;;5014481;28;20405;-75
2021/07/14 00:10:29;;;;;;;224.20;84.78;;;19.40;99.90;;;;;;5014405;28;20399;-74
2021/07/14 00:13:05;;;;;;;20.02;8.18;;;19.30;1.40;;;;;;5013999;28;20900;-73
2021/07/14 00:23:26;;;;;;;15.88;7.72;;;20.00;99.90;;;;;;5014400;28;20467;-76
2021/07/14 00:25:52;;;;;;;13.15;6.13;;;20.10;99.90;;;;;;5013769;28;20929;-76
2021/07/14 00:28:18;;;;;;;21.50;5.87;;;20.20;99.90;;;;;;5013980;28;20400;-76
2021/07/14 00:30:50;;;;;;;10.43;8.07;;;20.20;99.90;;;;;;5013551;28;20471;-74
2021/07/14 00:33:15;;;;;;;9.20;5.63;;;20.20;99.90;;;;;;5013787;28;20499;-75
2021/07/14 00:35:41;;;;;;;11.67;7.37;;;20.20;99.90;;;;;;5014001;28;20472;-74
2021/07/14 00:38:06;;;;;;;16.97;6.27;;;20.30;99.90;;;;;;5013890;28;20472;-75
2021/07/14 00:40:32;;;;;;;19.60;4.47;;;20.50;99.90;;;;;;5013514;28;20468;-75
2021/07/14 00:42:58;;;;;;;10.07;4.72;;;21.10;99.90;;;;;;5013861;28;20815;-74
2021/07/14 00:45:24;;;;;;;11.77;5.93;;;21.30;99.90;;;;;;5014623;28;20396;-76
2021/07/14 00:47:55;;;;;;;10.80;4.80;;;21.40;99.90;;;;;;5014440;28;20420;-76
2021/07/14 00:50:21;;;;;;;4.07;3.65;;;21.60;99.90;;;;;;5015266;28;20461;-75
2021/07/14 00:52:47;;;;;;;6.40;3.10;;;22.00;99.90;;;;;;5014515;28;20438;-74
2021/07/14 00:55:13;;;;;;;9.10;2.42;;;22.20;99.90;;;;;;5014151;28;20472;-76
2021/07/14 00:57:38;;;;;;;0.90;0.73;;;22.30;99.90;;;;;;5013902;28;20388;-75
2021/07/14 01:00:06;;;;;;;1.50;1.40;;;22.40;99.90;;;;;;5013274;28;20781;-75
2021/07/14 01:02:32;;;;;;;1.50;1.40;;;22.70;99.90;;;;;;5013674;28;20373;-75
2021/07/14 01:05:05;;;;;;;1.60;1.50;;;22.70;99.90;;;;;;5014260;28;20400;-75
2021/07/14 01:07:38;;;;;;;0.90;0.90;;;22.70;99.90;;;;;;5014122;28;20491;-76
2021/07/14 01:10:21;;;;;;;1.20;0.90;;;23.10;99.90;;;;;;5013941;28;20873;-76
2021/07/14 01:13:07;;;;;;;1.20;1.02;;;23.40;99.90;;;;;;5013581;28;20481;-75
2021/07/14 01:15:48;;;;;;;1.23;1.00;;;23.30;99.90;;;;;;5013488;28;20387;-75
2021/07/14 01:18:34;;;;;;;1.50;1.40;;;23.30;99.90;;;;;;5012742;28;20531;-74
2021/07/14 01:21:07;;;;;;;1.60;0.80;;;23.20;99.90;;;;;;5012754;28;20395;-75
2021/07/14 01:23:55;;;;;;;1.07;0.97;;;23.30;99.90;;;;;;5012769;28;20396;-75
2021/07/14 01:26:39;;;;;;;0.90;0.60;;;23.50;99.90;;;;;;5012693;28;20388;-75
2021/07/14 01:29:08;;;;;;;0.80;0.50;;;23.60;99.90;;;;;;5012392;28;20636;-74
2021/07/14 01:31:35;;;;;;;1.23;1.13;;;23.40;99.90;;;;;;5012463;28;20416;-74
2021/07/14 01:34:03;;;;;;;0.70;0.50;;;23.30;99.90;;;;;;5012566;28;20536;-75
2021/07/14 01:36:31;;;;;;;0.70;0.50;;;23.50;99.90;;;;;;5012391;28;20385;-76
2021/07/14 01:38:57;;;;;;;0.93;0.52;;;23.40;99.90;;;;;;5012912;28;20393;-75
2021/07/14 01:41:25;;;;;;;3.60;0.80;;;23.30;99.90;;;;;;5012299;28;20436;-77
2021/07/14 01:43:54;;;;;;;1.73;1.07;;;23.20;99.90;;;;;;5012350;28;20881;-76
2021/07/14 01:46:23;;;;;;;0.70;0.50;;;23.40;99.90;;;;;;5012179;28;20388;-75
2021/07/14 01:48:49;;;;;;;3.13;0.80;;;23.30;99.90;;;;;;5012304;28;20862;-76
2021/07/14 01:51:15;;;;;;;1.10;1.00;;;23.40;99.90;;;;;;5012288;28;20763;-76
2021/07/14 01:53:43;;;;;;;1.60;1.10;;;23.20;99.90;;;;;;5013583;28;20762;-77
2021/07/14 01:56:10;;;;;;;1.40;0.90;;;23.10;99.90;;;;;;5015363;28;20754;-77
2021/07/14 01:58:39;;;;;;;1.33;0.93;;;22.90;99.90;;;;;;5013989;28;20385;-76
2021/07/14 02:01:06;;;;;;;2.33;1.65;;;23.30;99.90;;;;;;5011895;28;20381;-76
2021/07/14 02:06:01;;;;;;;1.10;0.90;;;23.00;99.90;;;;;;5016238;28;20739;-76
2021/07/14 02:08:28;;;;;;;0.87;0.73;;;23.10;99.90;;;;;;5012328;28;20408;-76
2021/07/14 02:10:55;;;;;;;1.60;0.70;;;23.10;99.90;;;;;;5012352;28;20385;-76
2021/07/14 02:13:24;;;;;;;2.50;1.13;;;22.90;99.90;;;;;;5011943;28;20428;-76
2021/07/14 02:15:58;;;;;;;1.10;0.95;;;22.90;99.90;;;;;;5011919;28;20447;-76
2021/07/14 02:18:28;;;;;;;1.40;1.23;;;22.90;99.90;;;;;;5012218;28;20469;-76
2021/07/14 02:20:56;;;;;;;1.63;1.25;;;23.00;99.90;;;;;;5013799;28;20527;-76
2021/07/14 02:23:22;;;;;;;1.70;1.60;;;23.00;99.90;;;;;;5015163;28;20468;-76
2021/07/14 02:25:47;;;;;;;3.53;1.70;;;23.20;99.90;;;;;;5014996;28;20910;-76
2021/07/14 02:28:13;;;;;;;2.87;1.00;;;23.10;99.90;;;;;;5014034;28;20377;-76
2021/07/14 02:30:39;;;;;;;2.20;1.23;;;23.10;99.90;;;;;;5013421;28;20392;-76
2021/07/14 02:33:09;;;;;;;3.20;2.10;;;23.00;99.90;;;;;;5013511;28;20404;-76
2021/07/14 02:35:39;;;;;;;7.35;2.50;;;23.00;99.90;;;;;;5013866;28;20941;-76
2021/07/14 02:38:13;;;;;;;11.90;4.78;;;23.10;99.90;;;;;;5014565;28;20389;-76
2021/07/14 02:40:55;;;;;;;7.60;4.63;;;23.30;99.90;;;;;;5014634;28;20730;-76
2021/07/14 02:43:27;;;;;;;17.35;5.80;;;23.30;99.90;;;;;;5014112;28;20397;-76
2021/07/14 02:45:54;;;;;;;7.72;3.95;;;23.30;99.90;;;;;;5015131;28;20459;-75
2021/07/14 02:48:24;;;;;;;12.73;4.97;;;23.30;99.90;;;;;;5013618;28;20377;-75
2021/07/14 02:50:52;;;;;;;9.10;4.97;;;23.40;99.90;;;;;;4996454;28;20444;-76
2021/07/14 02:53:22;;;;;;;15.75;4.80;;;23.40;99.90;;;;;;5013764;28;20416;-76
2021/07/14 02:55:54;;;;;;;11.13;4.32;;;23.40;99.90;;;;;;5015653;28;20381;-76
2021/07/14 02:58:23;;;;;;;5.72;4.10;;;23.30;99.90;;;;;;5013881;28;20392;-76
2021/07/14 03:00:50;;;;;;;7.90;4.07;;;23.30;99.90;;;;;;5013867;28;20738;-74
2021/07/14 03:03:16;;;;;;;12.40;5.03;;;23.20;99.90;;;;;;5012880;28;20391;-76
2021/07/14 03:05:43;;;;;;;10.95;4.90;;;23.20;99.90;;;;;;5012420;28;20384;-76
2021/07/14 03:08:14;;;;;;;18.83;7.35;;;23.20;99.90;;;;;;5013608;28;20817;-76
2021/07/14 03:10:43;;;;;;;9.82;4.45;;;23.20;99.90;;;;;;5012877;28;20389;-76
2021/07/14 03:13:10;;;;;;;5.70;4.20;;;23.10;99.90;;;;;;5012657;28;20539;-76
2021/07/14 03:15:39;;;;;;;11.32;5.38;;;23.10;99.90;;;;;;5012555;28;20420;-76
2021/07/14 03:18:07;;;;;;;8.30;5.20;;;23.20;99.90;;;;;;5011750;28;20387;-76
2021/07/14 03:20:34;;;;;;;11.85;4.53;;;23.30;99.90;;;;;;5010513;28;20396;-75
2021/07/14 03:23:01;;;;;;;24.37;4.97;;;23.30;99.90;;;;;;5012554;28;20856;-75
2021/07/14 03:25:27;;;;;;;10.25;5.30;;;23.20;99.90;;;;;;5013081;28;20417;-76
2021/07/14 03:27:54;;;;;;;13.63;5.10;;;23.10;99.90;;;;;;5012665;28;20399;-76
2021/07/14 03:30:21;;;;;;;7.60;5.30;;;23.10;99.90;;;;;;5011549;28;20413;-76
2021/07/14 03:32:47;;;;;;;10.15;5.57;;;23.20;99.90;;;;;;5011403;28;20389;-75
2021/07/14 03:35:14;;;;;;;11.32;4.68;;;23.10;99.90;;;;;;4993686;28;20384;-75
2021/07/14 03:37:42;;;;;;;5.20;4.50;;;23.10;99.90;;;;;;5011122;28;20381;-75
2021/07/14 03:40:09;;;;;;;6.07;4.05;;;23.20;99.90;;;;;;5011367;28;20385;-75
2021/07/14 03:42:37;;;;;;;7.95;4.53;;;23.20;99.90;;;;;;5009742;28;20396;-76
2021/07/14 03:45:04;;;;;;;12.27;5.55;;;23.10;99.90;;;;;;5010992;28;20399;-76
2021/07/14 03:47:30;;;;;;;9.50;6.15;;;23.20;99.90;;;;;;5010978;28;20424;-76
2021/07/14 03:49:57;;;;;;;12.50;5.95;;;23.10;99.90;;;;;;5009823;28;20475;-77
2021/07/14 03:52:24;;;;;;;15.93;4.80;;;23.10;99.90;;;;;;5010776;28;20392;-77
2021/07/14 03:54:50;;;;;;;8.80;5.10;;;23.10;99.90;;;;;;5010855;28;20404;-76
2021/07/14 03:57:17;;;;;;;7.88;4.47;;;23.10;99.90;;;;;;5010973;28;20408;-76
2021/07/14 03:59:42;;;;;;;14.23;5.90;;;23.20;99.90;;;;;;5011466;28;20543;-76
2021/07/14 04:02:11;;;;;;;10.87;6.80;;;23.10;99.90;;;;;;5011265;28;20380;-76
2021/07/14 04:04:37;;;;;;;6.38;4.72;;;23.00;99.90;;;;;;5010821;28;20818;-76
2021/07/14 04:07:13;;;;;;;12.77;5.72;;;23.10;99.90;;;;;;5010544;28;21049;-76
2021/07/14 04:09:39;;;;;;;16.65;6.05;;;23.10;99.90;;;;;;5011067;28;20388;-76
2021/07/14 04:12:04;;;;;;;17.48;6.18;;;23.10;99.90;;;;;;5010874;28;20446;-75
2021/07/14 04:14:30;;;;;;;6.63;4.10;;;23.20;99.90;;;;;;5010956;28;20412;-76
2021/07/14 04:16:57;;;;;;;10.90;6.30;;;23.00;99.90;;;;;;5011662;28;20858;-75
2021/07/14 04:19:23;;;;;;;12.80;4.40;;;23.00;99.90;;;;;;5011986;28;20460;-75
2021/07/14 04:21:49;;;;;;;7.53;4.43;;;23.00;99.90;;;;;;5011999;28;20389;-77
2021/07/14 04:24:15;;;;;;;8.50;3.60;;;23.00;99.90;;;;;;5013308;28;20410;-76
2021/07/14 04:26:41;;;;;;;9.63;4.40;;;22.90;99.90;;;;;;4994060;28;20389;-76
2021/07/14 04:29:07;;;;;;;20.13;4.80;;;22.90;99.90;;;;;;4996647;28;20392;-75
2021/07/14 04:31:34;;;;;;;8.30;3.40;;;22.90;99.90;;;;;;5015208;28;20928;-75
2021/07/14 04:34:00;;;;;;;10.93;4.07;;;22.90;99.90;;;;;;5016194;28;20451;-76
2021/07/14 04:36:26;;;;;;;6.07;3.60;;;22.90;99.90;;;;;;5017853;28;20412;-76
2021/07/14 04:38:51;;;;;;;7.27;4.60;;;22.80;99.90;;;;;;5016945;28;20802;-77
2021/07/14 04:41:17;;;;;;;3.97;2.97;;;22.80;99.90;;;;;;5015971;28;20401;-75
2021/07/14 04:43:42;;;;;;;3.75;2.92;;;22.80;99.90;;;;;;5016843;28;20849;-76
2021/07/14 04:46:08;;;;;;;6.03;4.20;;;22.70;99.90;;;;;;5015454;28;20389;-75
2021/07/14 04:48:34;;;;;;;8.90;3.40;;;22.80;99.90;;;;;;5014536;28;20400;-76
2021/07/14 04:50:59;;;;;;;4.28;3.63;;;22.70;99.90;;;;;;5014163;28;20824;-75
2021/07/14 04:53:25;;;;;;;3.70;3.23;;;22.70;99.90;;;;;;5014149;28;20993;-75
2021/07/14 04:55:50;;;;;;;3.03;2.20;;;22.80;99.90;;;;;;5015089;28;20412;-75
2021/07/14 04:58:16;;;;;;;8.13;2.25;;;22.80;99.90;;;;;;5018406;28;20442;-74
2021/07/14 05:00:41;;;;;;;14.27;5.13;;;22.90;99.90;;;;;;5020533;28;20385;-75
2021/07/14 05:03:07;;;;;;;5.17;3.20;;;22.80;99.90;;;;;;5019129;28;20388;-75
2021/07/14 05:05:32;;;;;;;11.97;3.77;;;22.80;99.90;;;;;;5002825;28;20413;-76
2021/07/14 05:07:59;;;;;;;8.30;4.30;;;22.80;99.90;;;;;;5018591;28;20403;-76
2021/07/14 05:10:28;;;;;;;6.57;3.38;;;22.80;99.90;;;;;;4999499;28;20826;-77
2021/07/14 05:12:55;;;;;;;8.07;2.95;;;23.00;99.90;;;;;;5013783;28;20490;-76
2021/07/14 05:15:20;;;;;;;6.35;3.83;;;23.00;99.90;;;;;;5014058;28;20467;-76
2021/07/14 05:17:46;;;;;;;10.43;3.27;;;23.00;99.90;;;;;;5013280;28;20814;-76
2021/07/14 05:20:12;;;;;;;12.85;4.57;;;22.90;99.90;;;;;;5013546;28;20381;-76
2021/07/14 05:22:37;;;;;;;9.80;3.63;;;22.90;99.90;;;;;;5013647;28;20531;-78
2021/07/14 05:25:05;;;;;;;6.00;2.72;;;22.90;99.90;;;;;;5013574;28;20483;-76
2021/07/14 05:27:30;;;;;;;3.00;2.80;;;22.80;99.90;;;;;;4995245;28;20385;-77
2021/07/14 05:29:56;;;;;;;5.03;2.72;;;22.80;99.90;;;;;;5013122;28;20531;-75
2021/07/14 05:32:21;;;;;;;8.27;3.33;;;22.80;99.90;;;;;;5012627;28;20396;-75
2021/07/14 05:34:47;;;;;;;3.60;3.07;;;22.90;99.90;;;;;;5013004;28;20405;-75
2021/07/14 05:37:13;;;;;;;8.18;3.47;;;22.80;99.90;;;;;;5013228;28;20385;-76
2021/07/14 05:39:38;;;;;;;6.10;2.50;;;22.70;99.90;;;;;;5012872;28;20385;-74
2021/07/14 05:42:06;;;;;;;13.40;4.40;;;22.60;99.90;;;;;;5014438;28;20930;-76
2021/07/14 05:44:32;;;;;;;5.60;4.25;;;22.70;99.90;;;;;;5013309;28;20417;-75
2021/07/14 05:46:57;;;;;;;12.43;5.93;;;22.70;99.90;;;;;;5015275;28;20399;-75
2021/07/14 05:49:23;;;;;;;9.60;4.30;;;22.70;99.90;;;;;;5012727;28;20389;-75
2021/07/14 05:51:48;;;;;;;12.07;6.60;;;22.70;99.90;;;;;;4994926;28;20393;-75
2021/07/14 05:54:14;;;;;;;14.33;6.30;;;22.80;99.90;;;;;;5012621;28;20417;-76
2021/07/14 05:56:40;;;;;;;6.27;5.03;;;22.80;99.90;;;;;;5013379;28;20389;-75
2021/07/14 05:59:06;;;;;;;9.50;5.03;;;22.80;99.90;;;;;;5013170;28;20451;-75
2021/07/14 06:01:32;;;;;;;14.00;6.50;;;22.80;99.90;;;;;;5017754;28;20790;-76
2021/07/14 06:03:57;;;;;;;16.67;6.22;;;22.80;99.90;;;;;;5017632;28;20945;-75
2021/07/14 06:06:23;;;;;;;25.98;6.15;;;22.90;99.90;;;;;;5017939;28;20464;-76
2021/07/14 06:08:48;;;;;;;15.27;5.40;;;22.80;99.90;;;;;;5012818;28;20397;-75
2021/07/14 06:11:14;;;;;;;14.33;5.90;;;22.90;99.90;;;;;;5012709;28;20393;-76
2021/07/14 06:13:40;;;;;;;7.60;6.23;;;22.90;99.90;;;;;;5012806;28;20413;-76
2021/07/14 06:16:05;;;;;;;14.38;6.45;;;22.90;99.90;;;;;;5013824;28;20490;-76
2021/07/14 06:18:31;;;;;;;10.55;5.25;;;22.90;99.90;;;;;;5016076;28;20379;-77
2021/07/14 06:20:57;;;;;;;15.80;5.00;;;22.80;99.90;;;;;;5015991;28;20381;-77
2021/07/14 06:23:22;;;;;;;16.27;6.17;;;22.80;99.90;;;;;;5015500;28;20483;-77
2021/07/14 06:25:48;;;;;;;7.57;5.43;;;22.90;99.90;;;;;;5013040;28;20388;-76
2021/07/14 06:28:14;;;;;;;6.55;5.93;;;22.80;99.90;;;;;;5010797;28;20424;-78
2021/07/14 06:30:41;;;;;;;11.90;4.33;;;22.80;99.90;;;;;;5015453;28;20393;-77
2021/07/14 06:33:07;;;;;;;15.38;5.47;;;22.90;99.90;;;;;;5014459;28;20393;-78
2021/07/14 06:35:32;;;;;;;7.00;4.78;;;22.90;99.90;;;;;;5015167;28;20384;-78
2021/07/14 06:37:58;;;;;;;8.15;5.22;;;22.80;99.90;;;;;;5012985;28;20424;-77
2021/07/14 06:40:24;;;;;;;8.38;3.85;;;22.90;99.90;;;;;;5012453;28;20389;-78
2021/07/14 06:42:50;;;;;;;10.45;4.13;;;22.80;99.90;;;;;;5012998;28;20851;-77
2021/07/14 06:45:16;;;;;;;10.60;3.80;;;22.90;99.90;;;;;;4995326;28;20389;-77
2021/07/14 06:47:42;;;;;;;7.30;5.57;;;22.90;99.90;;;;;;5013365;28;20404;-76
2021/07/14 06:50:10;;;;;;;7.83;5.40;;;22.80;99.90;;;;;;5012532;28;20388;-75
2021/07/14 06:52:37;;;;;;;6.17;3.07;;;22.70;99.90;;;;;;5011576;28;20471;-77
2021/07/14 06:55:04;;;;;;;6.88;4.93;;;22.80;99.90;;;;;;5012226;28;20536;-77
2021/07/14 06:57:29;;;;;;;9.75;5.28;;;22.80;99.90;;;;;;4999070;28;20898;-77
2021/07/14 06:59:55;;;;;;;13.45;7.60;;;22.80;99.90;;;;;;5012371;28;20395;-75
2021/07/14 07:02:20;;;;;;;25.80;5.25;;;22.60;99.90;;;;;;5011059;28;20389;-76
2021/07/14 07:04:46;;;;;;;12.87;5.27;;;22.70;99.90;;;;;;5011230;28;20397;-77
2021/07/14 07:07:12;;;;;;;8.80;3.70;;;22.70;99.90;;;;;;5011744;28;20462;-75
2021/07/14 07:09:37;;;;;;;15.07;5.40;;;22.70;99.90;;;;;;5011473;28;20393;-75
2021/07/14 07:12:03;;;;;;;11.27;3.30;;;22.80;99.90;;;;;;4993314;28;20405;-76
2021/07/14 07:14:29;;;;;;;5.40;3.78;;;22.80;99.90;;;;;;5011136;28;20435;-75
2021/07/14 07:16:54;;;;;;;5.90;3.67;;;22.70;99.90;;;;;;5011364;28;20393;-75
2021/07/14 07:19:20;;;;;;;5.33;3.50;;;22.80;99.90;;;;;;5011204;28;20420;-76
2021/07/14 07:21:48;;;;;;;11.87;3.97;;;22.80;99.90;;;;;;5011554;28;20389;-76
2021/07/14 07:24:14;;;;;;;16.00;4.45;;;22.70;99.90;;;;;;5011233;28;20456;-75
2021/07/14 07:26:39;;;;;;;6.18;5.50;;;22.80;99.90;;;;;;5013025;28;20728;-76
2021/07/14 07:29:05;;;;;;;11.35;4.05;;;22.80;99.90;;;;;;5011329;28;20403;-77
2021/07/14 07:31:32;;;;;;;9.43;4.53;;;22.70;99.90;;;;;;5011091;28;20388;-75
2021/07/14 07:33:59;;;;;;;6.00;5.05;;;22.70;99.90;;;;;;5010905;28;20416;-75
2021/07/14 07:36:25;;;;;;;7.45;4.75;;;22.70;99.90;;;;;;5011346;28;20389;-75
2021/07/14 07:38:51;;;;;;;6.28;3.45;;;22.70;99.90;;;;;;5011061;28;20381;-75
2021/07/14 07:41:19;;;;;;;17.80;5.07;;;22.80;99.90;;;;;;5011331;28;20408;-75
2021/07/14 07:43:44;;;;;;;9.43;4.28;;;22.70;99.90;;;;;;5011200;28;20385;-76
2021/07/14 07:46:10;;;;;;;7.97;4.50;;;22.70;99.90;;;;;;5011059;28;20455;-76
2021/07/14 07:48:37;;;;;;;12.07;5.78;;;22.60;99.90;;;;;;5011120;28;20389;-75
2021/07/14 07:51:05;;;;;;;9.82;3.58;;;22.60;99.90;;;;;;5011103;28;20890;-77
2021/07/14 07:53:30;;;;;;;5.90;3.47;;;22.60;99.90;;;;;;5011245;28;20419;-77
2021/07/14 07:55:56;;;;;;;5.73;3.37;;;22.60;99.90;;;;;;5010975;28;20385;-76
2021/07/14 07:58:22;;;;;;;7.90;4.53;;;22.50;99.90;;;;;;5011249;28;20381;-76
2021/07/14 08:00:48;;;;;;;2.72;2.42;;;22.50;99.90;;;;;;5011202;28;20389;-75
2021/07/14 08:03:14;;;;;;;8.07;2.67;;;22.50;99.90;;;;;;5015267;28;20388;-75
2021/07/14 08:05:41;;;;;;;8.20;2.40;;;22.50;99.90;;;;;;5020640;28;20380;-74
2021/07/14 08:08:06;;;;;;;2.50;2.05;;;22.50;99.90;;;;;;4998485;28;20388;-75
2021/07/14 08:10:32;;;;;;;4.50;3.20;;;22.50;99.90;;;;;;5020559;28;20396;-74
2021/07/14 08:12:58;;;;;;;3.40;2.25;;;22.50;99.90;;;;;;5023272;28;20472;-76
2021/07/14 08:15:24;;;;;;;6.80;2.50;;;22.40;99.90;;;;;;4998627;28;20938;-75
2021/07/14 08:17:49;;;;;;;2.47;2.03;;;22.30;99.90;;;;;;5014357;28;20478;-75
2021/07/14 08:20:16;;;;;;;6.07;3.28;;;22.30;99.90;;;;;;5014397;28;20389;-76
2021/07/14 08:22:42;;;;;;;3.70;3.42;;;22.30;99.90;;;;;;5014077;28;20389;-74
2021/07/14 08:25:09;;;;;;;5.40;3.00;;;22.30;99.90;;;;;;5014044;28;20389;-75
2021/07/14 08:27:35;;;;;;;5.15;3.25;;;22.30;99.90;;;;;;5013914;28;20620;-75
2021/07/14 08:30:04;;;;;;;4.73;2.20;;;22.40;99.90;;;;;;5013848;28;20467;-74
2021/07/14 08:32:31;;;;;;;2.33;2.13;;;22.40;99.90;;;;;;5013967;28;20396;-73
2021/07/14 08:34:57;;;;;;;3.20;2.35;;;22.40;99.90;;;;;;5013767;28;20933;-74
2021/07/14 08:37:24;;;;;;;5.30;2.45;;;22.40;99.90;;;;;;5014208;28;20836;-73
2021/07/14 08:39:50;;;;;;;2.00;1.90;;;22.30;99.90;;;;;;5014104;28;20377;-74
2021/07/14 08:42:17;;;;;;;5.00;1.90;;;22.30;99.90;;;;;;5013696;28;20731;-74
2021/07/14 08:44:43;;;;;;;3.30;2.65;;;22.30;99.90;;;;;;5014557;28;20834;-74
2021/07/14 08:47:09;;;;;;;5.90;2.20;;;22.20;99.90;;;;;;5023347;28;20392;-74
2021/07/14 08:49:40;;;;;;;6.00;2.53;;;22.10;99.90;;;;;;5020429;28;20396;-73
2021/07/14 08:52:06;;;;;;;2.95;2.15;;;22.20;99.90;;;;;;5015622;28;20392;-74
2021/07/14 08:54:32;;;;;;;3.00;1.73;;;22.20;99.90;;;;;;5014392;28;20420;-75
2021/07/14 08:56:58;;;;;;;2.15;1.63;;;22.30;99.90;;;;;;5013572;28;20384;-74
2021/07/14 08:59:24;;;;;;;4.05;2.13;;;22.30;99.90;;;;;;5013558;28;20396;-76
2021/07/14 09:01:49;;;;;;;5.93;2.23;;;22.40;99.90;;;;;;5013322;28;20746;-74
2021/07/14 09:04:15;;;;;;;2.10;1.90;;;22.30;99.90;;;;;;5012937;28;20392;-74
2021/07/14 09:06:41;;;;;;;4.40;1.83;;;22.30;99.90;;;;;;5012937;28;20408;-74
2021/07/14 09:09:07;;;;;;;3.55;1.90;;;22.20;99.90;;;;;;5013383;28;20389;-74
2021/07/14 09:11:53;;;;;;;1.10;1.00;;;22.30;99.90;;;;;;5013002;28;20435;-74
2021/07/14 09:14:27;;;;;;;4.50;1.20;;;22.40;99.90;;;;;;5012193;28;20432;-75
2021/07/14 09:16:53;;;;;;;1.42;1.33;;;22.20;99.90;;;;;;5013219;28;20908;-75
2021/07/14 09:19:27;;;;;;;2.00;1.70;;;22.20;99.90;;;;;;5013359;28;20385;-73
2021/07/14 09:21:53;;;;;;;3.00;1.40;;;22.20;99.90;;;;;;5012794;28;20754;-75
2021/07/14 09:24:26;;;;;;;1.58;1.38;;;22.20;99.90;;;;;;4995793;28;20447;-76
2021/07/14 09:26:56;;;;;;;5.10;1.80;;;22.30;99.90;;;;;;5013276;28;20389;-73
2021/07/14 09:29:23;;;;;;;2.30;1.30;;;22.20;99.90;;;;;;5011709;28;20446;-76
2021/07/14 09:31:49;;;;;;;2.00;1.63;;;22.30;99.90;;;;;;5013179;28;20475;-73
2021/07/14 09:34:28;;;;;;;3.10;1.60;;;22.30;99.90;;;;;;5012659;28;20409;-74
2021/07/14 09:37:00;;;;;;;1.10;1.00;;;22.30;99.90;;;;;;5013061;28;20381;-74
2021/07/14 09:39:30;;;;;;;1.40;1.30;;;22.30;99.90;;;;;;5012809;28;20469;-75
2021/07/14 09:42:10;;;;;;;2.22;1.80;;;22.20;99.90;;;;;;5012535;28;20396;-74
2021/07/14 09:44:45;;;;;;;1.70;1.47;;;22.20;99.90;;;;;;5012492;28;20396;-74
2021/07/14 09:47:22;;;;;;;3.53;1.80;;;22.30;99.90;;;;;;5012375;28;20389;-74
2021/07/14 09:49:49;;;;;;;1.40;1.30;;;22.20;99.90;;;;;;5012153;28;20821;-74
2021/07/14 09:52:19;;;;;;;2.10;2.00;;;22.20;99.90;;;;;;5012171;28;20393;-76
2021/07/14 09:54:45;;;;;;;1.98;1.80;;;22.10;99.90;;;;;;4994697;28;20411;-75
2021/07/14 09:57:16;;;;;;;4.68;2.80;;;22.10;99.90;;;;;;5012429;28;20377;-75
2021/07/14 09:59:42;;;;;;;3.63;2.47;;;22.20;99.90;;;;;;5012616;28;20900;-74
2021/07/14 10:02:13;;;;;;;4.75;2.60;;;22.00;99.90;;;;;;5012236;28;20424;-75
2021/07/14 10:04:40;;;;;;;2.70;1.50;;;22.10;99.90;;;;;;5012459;28;20909;-75
2021/07/14 10:07:18;;;;;;;3.47;2.40;;;22.20;99.90;;;;;;5012020;28;20441;-76
2021/07/14 10:09:46;;;;;;;4.80;2.00;;;22.10;99.90;;;;;;5012351;28;20389;-77
2021/07/14 10:12:38;;;;;;;5.00;2.88;;;22.10;99.90;;;;;;5012143;28;20391;-75
2021/07/14 10:15:16;;;;;;;3.97;1.67;;;22.20;99.90;;;;;;5011926;28;20487;-76
2021/07/14 10:17:47;;;;;;;3.40;2.28;;;22.10;99.90;;;;;;5012707;28;20757;-75
2021/07/14 10:20:21;;;;;;;2.70;2.50;;;22.10;99.90;;;;;;5011021;28;20416;-74
2021/07/14 10:23:04;;;;;;;2.33;1.77;;;22.10;99.90;;;;;;5011794;28;20381;-76
2021/07/14 10:25:32;;;;;;;4.05;2.13;;;22.10;99.90;;;;;;5011907;28;20388;-74
2021/07/14 10:28:00;;;;;;;2.55;2.35;;;22.10;99.90;;;;;;5012186;28;20396;-76
2021/07/14 10:30:27;;;;;;;6.40;3.00;;;22.10;99.90;;;;;;5011997;28;20390;-77
2021/07/14 10:32:54;;;;;;;7.85;3.20;;;22.10;99.90;;;;;;5011955;28;20423;-76
2021/07/14 10:35:23;;;;;;;2.20;1.88;;;22.00;99.90;;;;;;5012079;28;20409;-75
2021/07/14 10:37:50;;;;;;;4.35;3.10;;;22.00;99.90;;;;;;5011860;28;20447;-76
2021/07/14 10:40:18;;;;;;;4.60;2.90;;;21.90;99.90;;;;;;5011976;28;20389;-75
2021/07/14 10:42:48;;;;;;;3.45;3.15;;;22.00;99.90;;;;;;5012010;28;20467;-75
2021/07/14 10:45:14;;;;;;;5.82;3.47;;;21.90;99.90;;;;;;5011801;28;20373;-76
2021/07/14 10:47:40;;;;;;;4.97;3.08;;;21.90;99.90;;;;;;5012476;28;20399;-75
2021/07/14 10:50:10;;;;;;;12.63;6.60;;;22.00;99.90;;;;;;5011834;28;20475;-76
2021/07/14 10:52:38;;;;;;;10.68;4.68;;;22.00;99.90;;;;;;5012337;28;20388;-76
2021/07/14 10:55:05;;;;;;;6.28;3.88;;;21.90;99.90;;;;;;5011840;28;20447;-76
2021/07/14 10:57:32;;;;;;;6.63;3.47;;;22.00;99.90;;;;;;5011670;28;20385;-76
2021/07/14 10:59:58;;;;;;;6.13;3.07;;;22.00;99.90;;;;;;5011545;28;20385;-78
2021/07/14 11:02:47;;;;;;;3.75;3.38;;;22.00;99.90;;;;;;5011573;28;20389;-77
2021/07/14 11:05:14;;;;;;;12.85;3.60;;;22.00;99.90;;;;;;5012222;28;20408;-76
2021/07/14 11:07:45;;;;;;;7.30;4.30;;;21.90;99.90;;;;;;5011971;28;20858;-76
2021/07/14 11:10:30;;;;;;;9.80;4.30;;;22.00;99.90;;;;;;5012169;28;20385;-75
2021/07/14 11:12:58;;;;;;;7.03;3.85;;;22.10;99.90;;;;;;5017676;28;20396;-75
2021/07/14 11:15:34;;;;;;;17.20;7.35;;;22.10;99.90;;;;;;5019694;28;20393;-76
2021/07/14 11:18:20;;;;;;;8.63;3.92;;;22.10;99.90;;;;;;5019301;28;20539;-77
2021/07/14 11:20:46;;;;;;;9.27;5.47;;;22.10;99.90;;;;;;5017714;28;20735;-76
2021/07/14 11:23:18;;;;;;;12.90;4.40;;;22.10;99.90;;;;;;5014174;28;20388;-77
2021/07/14 11:25:55;;;;;;;9.97;5.60;;;22.10;99.90;;;;;;5016067;28;20391;-76
2021/07/14 11:28:21;;;;;;;8.20;3.60;;;22.10;99.90;;;;;;5015839;28;20735;-76
2021/07/14 11:30:49;;;;;;;5.35;3.03;;;22.10;99.90;;;;;;5016158;28;20392;-75
2021/07/14 11:33:23;;;;;;;9.70;4.90;;;22.10;99.90;;;;;;5017150;28;20396;-76
2021/07/14 11:35:53;;;;;;;6.07;3.10;;;22.10;99.90;;;;;;5015952;28;20388;-76
2021/07/14 11:38:22;;;;;;;6.90;4.07;;;22.20;99.90;;;;;;5016080;28;20412;-76
2021/07/14 11:40:55;;;;;;;5.35;2.55;;;22.10;99.90;;;;;;5016313;28;20381;-76
2021/07/14 11:43:23;;;;;;;6.30;2.40;;;22.00;99.90;;;;;;5017419;28;20384;-78
2021/07/14 11:46:03;;;;;;;6.13;4.13;;;22.10;99.90;;;;;;5016367;28;20395;-76
2021/07/14 11:48:31;;;;;;;9.90;4.13;;;22.10;99.90;;;;;;5016071;28;20381;-75
2021/07/14 11:51:01;;;;;;;9.30;3.92;;;22.00;99.90;;;;;;5015049;28;20861;-75
2021/07/14 11:53:34;;;;;;;5.85;3.42;;;22.00;99.90;;;;;;5014967;28;20388;-75
2021/07/14 11:56:24;;;;;;;13.02;4.03;;;22.10;99.90;;;;;;5026215;28;20392;-73
2021/07/14 11:59:05;;;;;;;14.25;4.60;;;22.00;99.90;;;;;;5018975;28;20412;-75
2021/07/14 12:01:31;;;;;;;7.13;4.22;;;22.10;99.90;;;;;;5019692;28;20395;-75
2021/07/14 12:04:02;;;;;;;15.77;5.18;;;22.00;99.90;;;;;;5014696;28;20404;-76
2021/07/14 12:06:34;;;;;;;8.15;3.45;;;22.10;99.90;;;;;;5014853;28;20392;-75
2021/07/14 12:09:12;;;;;;;15.40;5.20;;;22.00;99.90;;;;;;5015748;28;20508;-75
2021/07/14 12:11:43;;;;;;;15.93;5.80;;;22.10;99.90;;;;;;5013545;28;20389;-75
2021/07/14 12:14:17;;;;;;;12.93;6.37;;;22.00;99.90;;;;;;5014399;28;20764;-75
2021/07/14 12:16:57;;;;;;;8.30;5.15;;;22.10;99.90;;;;;;5014471;28;20847;-75
2021/07/14 12:19:27;;;;;;;7.00;4.47;;;22.00;99.90;;;;;;4996972;28;20393;-75
2021/07/14 12:21:54;;;;;;;8.77;5.38;;;22.00;99.90;;;;;;5012850;28;20391;-75
2021/07/14 12:24:49;;;;;;;13.23;6.32;;;22.00;99.90;;;;;;5014081;28;20905;-75
2021/07/14 12:27:22;;;;;;;12.63;4.80;;;22.00;99.90;;;;;;5013779;28;20746;-76
2021/07/14 12:29:49;;;;;;;17.27;6.32;;;22.00;99.90;;;;;;5013979;28;20889;-73
2021/07/14 12:32:15;;;;;;;9.70;4.87;;;22.00;99.90;;;;;;4996221;28;20827;-75
2021/07/14 12:34:46;;;;;;;9.75;4.10;;;22.20;99.90;;;;;;5014117;28;20435;-75
2021/07/14 12:37:11;;;;;;;13.40;6.50;;;22.10;99.90;;;;;;4996429;28;20419;-75
2021/07/14 12:39:37;;;;;;;10.35;6.90;;;22.10;99.90;;;;;;5014237;28;20873;-75
2021/07/14 12:42:06;;;;;;;9.30;5.55;;;22.10;99.90;;;;;;5013550;28;20409;-75
2021/07/14 12:44:31;;;;;;;20.42;8.75;;;22.10;99.90;;;;;;5013835;28;20600;-76
2021/07/14 12:47:10;;;;;;;15.63;6.63;;;22.10;99.90;;;;;;4996716;28;20397;-74
2021/07/14 12:49:36;;;;;;;17.77;6.53;;;22.20;99.90;;;;;;5012994;28;20463;-75
2021/07/14 12:52:16;;;;;;;19.73;6.70;;;22.30;99.90;;;;;;5012672;28;20536;-74
2021/07/14 12:54:44;;;;;;;12.27;6.70;;;22.40;99.90;;;;;;5013755;28;20397;-75
2021/07/14 12:57:35;;;;;;;16.30;6.80;;;22.40;99.90;;;;;;5013695;28;20450;-75
2021/07/14 13:00:07;;;;;;;18.95;9.40;;;22.40;99.90;;;;;;5013455;28;20416;-75